Time;durP1;ratioP1;P1;durP2;ratioP2;P2;SDS_P1;SDS_P2;PMS_P1;PMS_P2;Temp;Humidity;BMP_temperature;BMP_pressure;BME280_temperature;BME280_humidity;BME280_pressure;Samples;Min_cycle;Max_cycle;Signal;HPM_P1;HPM_P2
2022/07/12 00:01:43;;;;;;;6.43;3.67;;;14.50;99.90;;;;;;4974926;28;20174;-60
2022/07/12 00:04:08;;;;;;;3.33;3.03;;;14.50;99.90;;;;;;4986896;28;20646;-60
2022/07/12 00:06:34;;;;;;;8.70;3.80;;;14.50;99.90;;;;;;4991843;28;20189;-60
2022/07/12 00:09:00;;;;;;;4.57;3.80;;;14.50;99.90;;;;;;4989501;28;20248;-59
2022/07/12 00:11:25;;;;;;;6.20;3.20;;;14.40;99.90;;;;;;4988226;28;20729;-60
2022/07/12 00:13:51;;;;;;;4.23;3.70;;;14.40;99.90;;;;;;4990990;28;20181;-60
2022/07/12 00:16:17;;;;;;;3.37;2.80;;;14.40;99.90;;;;;;4989377;28;20190;-59
2022/07/12 00:18:42;;;;;;;3.67;3.27;;;14.30;99.90;;;;;;4973650;28;20248;-60
2022/07/12 00:21:08;;;;;;;3.50;3.20;;;14.20;99.90;;;;;;4972808;28;20174;-60
2022/07/12 00:23:34;;;;;;;5.17;3.60;;;14.20;99.90;;;;;;4988666;28;20806;-60
2022/07/12 00:26:04;;;;;;;4.63;3.57;;;14.20;99.90;;;;;;4986153;28;20829;-59
2022/07/12 00:28:32;;;;;;;4.03;3.60;;;14.10;99.90;;;;;;4988159;28;20559;-60
2022/07/12 00:30:59;;;;;;;4.67;3.53;;;14.10;99.90;;;;;;4992932;28;20937;-60
2022/07/12 00:33:24;;;;;;;4.40;3.40;;;14.00;99.90;;;;;;4983171;28;20528;-60
2022/07/12 00:35:50;;;;;;;5.70;3.20;;;14.00;99.90;;;;;;4991655;28;20515;-59
2022/07/12 00:38:17;;;;;;;5.87;3.67;;;13.90;99.90;;;;;;4988231;28;20192;-60
2022/07/12 00:40:42;;;;;;;4.13;3.73;;;13.90;99.90;;;;;;4989720;28;20503;-59
2022/07/12 00:43:08;;;;;;;5.30;3.60;;;13.90;99.90;;;;;;4990129;28;20967;-60
2022/07/12 00:45:34;;;;;;;5.50;3.67;;;13.80;99.90;;;;;;4991132;28;20724;-60
2022/07/12 00:48:00;;;;;;;5.90;3.93;;;13.80;99.90;;;;;;4992515;28;20702;-60
2022/07/12 00:50:25;;;;;;;4.23;3.63;;;13.70;99.90;;;;;;4986093;28;20240;-60
2022/07/12 00:52:54;;;;;;;3.70;3.40;;;13.70;99.90;;;;;;4990189;28;20428;-60
2022/07/12 00:55:21;;;;;;;5.90;3.50;;;13.70;99.90;;;;;;4989824;28;20291;-60
2022/07/12 00:57:49;;;;;;;4.17;3.77;;;13.60;99.90;;;;;;4986952;28;20436;-59
2022/07/12 01:00:19;;;;;;;3.50;3.20;;;13.60;99.90;;;;;;4979170;28;20440;-60
2022/07/12 01:02:47;;;;;;;6.03;3.70;;;13.50;99.90;;;;;;4990219;28;20435;-60
2022/07/12 01:05:13;;;;;;;5.50;3.60;;;13.50;99.90;;;;;;4988466;28;20432;-60
2022/07/12 01:07:40;;;;;;;3.80;3.40;;;13.50;99.90;;;;;;4984358;28;20939;-60
2022/07/12 01:10:07;;;;;;;3.97;3.20;;;13.40;99.90;;;;;;4988147;28;20173;-60
2022/07/12 01:12:33;;;;;;;3.83;3.53;;;13.40;99.90;;;;;;4990525;28;20447;-60
2022/07/12 01:14:59;;;;;;;4.23;3.20;;;13.30;99.90;;;;;;4992652;28;20452;-61
2022/07/12 01:17:26;;;;;;;4.27;3.87;;;13.30;99.90;;;;;;4986308;28;20436;-59
2022/07/12 01:19:54;;;;;;;5.73;4.00;;;13.30;99.90;;;;;;4972068;28;20543;-60
2022/07/12 01:22:32;;;;;;;6.13;3.67;;;13.30;99.90;;;;;;4984558;28;20435;-60
2022/07/12 01:24:59;;;;;;;5.20;3.40;;;13.20;99.90;;;;;;4986916;28;20467;-60
2022/07/12 01:27:25;;;;;;;3.50;3.20;;;13.20;99.90;;;;;;4977642;28;20479;-59
2022/07/12 01:29:50;;;;;;;4.80;3.30;;;13.20;99.90;;;;;;4991790;28;20420;-60
2022/07/12 01:32:25;;;;;;;8.40;3.63;;;13.10;99.90;;;;;;4984906;28;20181;-60
2022/07/12 01:35:04;;;;;;;3.77;3.40;;;13.10;99.90;;;;;;4987425;28;20204;-60
2022/07/12 01:37:40;;;;;;;4.17;3.77;;;13.10;99.90;;;;;;4988522;28;20432;-61
2022/07/12 01:40:07;;;;;;;3.90;3.50;;;13.10;99.90;;;;;;4983976;28;20440;-60
2022/07/12 01:42:33;;;;;;;4.20;3.53;;;13.10;99.90;;;;;;4982095;28;20551;-60
2022/07/12 01:44:59;;;;;;;5.43;3.83;;;13.10;99.90;;;;;;4988389;28;20938;-60
2022/07/12 01:47:30;;;;;;;3.97;3.33;;;13.10;99.90;;;;;;4988351;28;20228;-59
2022/07/12 01:49:56;;;;;;;4.13;3.83;;;13.00;99.90;;;;;;4989214;28;20440;-60
2022/07/12 01:52:22;;;;;;;5.17;3.90;;;13.00;99.90;;;;;;4987215;28;20443;-61
2022/07/12 01:54:48;;;;;;;4.20;3.80;;;13.00;99.90;;;;;;4985811;28;20197;-60
2022/07/12 01:57:14;;;;;;;3.60;3.30;;;13.00;99.90;;;;;;4987904;28;20523;-61
2022/07/12 01:59:41;;;;;;;4.83;4.00;;;13.00;99.90;;;;;;4985358;28;21053;-59
2022/07/12 02:02:07;;;;;;;3.73;3.43;;;13.00;99.90;;;;;;4987887;28;20472;-60
2022/07/12 02:04:33;;;;;;;7.00;4.33;;;12.90;99.90;;;;;;4989565;28;20463;-60
2022/07/12 02:07:00;;;;;;;7.20;3.40;;;12.90;99.90;;;;;;4986890;28;20435;-60
2022/07/12 02:09:25;;;;;;;6.50;4.13;;;12.90;99.90;;;;;;4984861;28;20429;-60
2022/07/12 02:11:51;;;;;;;4.93;3.53;;;12.90;99.90;;;;;;4990302;28;20420;-60
2022/07/12 02:14:17;;;;;;;4.27;3.60;;;12.80;99.90;;;;;;4989010;28;20660;-60
2022/07/12 02:16:43;;;;;;;3.60;3.30;;;12.80;99.90;;;;;;4987119;28;20193;-60
2022/07/12 02:19:10;;;;;;;3.50;3.20;;;12.80;99.90;;;;;;4988013;28;20212;-60
2022/07/12 02:21:36;;;;;;;4.40;3.40;;;12.80;99.90;;;;;;4988851;28;21037;-60
2022/07/12 02:24:02;;;;;;;4.07;3.70;;;12.70;99.90;;;;;;4985979;28;20517;-60
2022/07/12 02:26:28;;;;;;;4.30;3.67;;;12.70;99.90;;;;;;4987756;28;20543;-61
2022/07/12 02:28:53;;;;;;;4.77;4.13;;;12.70;99.90;;;;;;4988608;28;20296;-60
2022/07/12 02:31:19;;;;;;;4.03;3.70;;;12.60;99.90;;;;;;4986347;28;20204;-60
2022/07/12 02:33:45;;;;;;;7.07;4.13;;;12.60;99.90;;;;;;4983435;28;20188;-60
2022/07/12 02:36:10;;;;;;;4.63;3.80;;;12.60;99.90;;;;;;4983631;28;20197;-60
2022/07/12 02:38:36;;;;;;;6.80;3.87;;;12.60;99.90;;;;;;4988761;28;20181;-60
2022/07/12 02:41:01;;;;;;;4.70;3.80;;;12.60;99.90;;;;;;4982586;28;20711;-60
2022/07/12 02:43:29;;;;;;;4.27;3.97;;;12.60;99.90;;;;;;4988817;28;20275;-61
2022/07/12 02:46:11;;;;;;;4.70;3.30;;;12.60;99.90;;;;;;4982310;28;20207;-59
2022/07/12 02:48:38;;;;;;;4.57;3.77;;;12.50;99.90;;;;;;4987173;28;20460;-59
2022/07/12 02:51:05;;;;;;;4.40;4.00;;;12.50;99.90;;;;;;4981573;28;20534;-59
2022/07/12 02:53:32;;;;;;;5.93;4.37;;;12.50;99.90;;;;;;4988520;28;20440;-61
2022/07/12 02:55:57;;;;;;;10.93;3.90;;;12.40;99.90;;;;;;4985178;28;20452;-60
2022/07/12 02:58:23;;;;;;;4.90;4.40;;;12.40;99.90;;;;;;4986747;28;20442;-60
2022/07/12 03:00:49;;;;;;;4.20;3.90;;;12.40;99.90;;;;;;4982104;28;20185;-60
2022/07/12 03:03:15;;;;;;;4.00;3.60;;;12.40;99.90;;;;;;4985787;28;20186;-60
2022/07/12 03:05:41;;;;;;;4.13;3.73;;;12.40;99.90;;;;;;4984249;28;20876;-60
2022/07/12 03:08:09;;;;;;;4.03;3.70;;;12.30;99.90;;;;;;4986075;28;20474;-60
2022/07/12 03:10:35;;;;;;;6.30;3.83;;;12.30;99.90;;;;;;4983574;28;20433;-60
2022/07/12 03:13:01;;;;;;;4.07;3.73;;;12.30;99.90;;;;;;4990292;28;20412;-60
2022/07/12 03:15:27;;;;;;;5.00;4.30;;;12.30;99.90;;;;;;4987396;28;20452;-60
2022/07/12 03:17:54;;;;;;;4.60;3.70;;;12.30;99.90;;;;;;4988359;28;20854;-60
2022/07/12 03:20:19;;;;;;;6.70;4.53;;;12.30;99.90;;;;;;4985378;28;20504;-60
2022/07/12 03:22:47;;;;;;;6.03;4.17;;;12.30;99.90;;;;;;4986945;28;21075;-61
2022/07/12 03:25:13;;;;;;;4.47;3.60;;;12.30;99.90;;;;;;4979349;28;20217;-61
2022/07/12 03:27:40;;;;;;;5.93;4.30;;;12.20;99.90;;;;;;4987526;28;20840;-61
2022/07/12 03:30:06;;;;;;;4.47;4.07;;;12.20;99.90;;;;;;4985338;28;20535;-60
2022/07/12 03:32:32;;;;;;;4.37;3.97;;;12.20;99.90;;;;;;4989823;28;21093;-62
2022/07/12 03:34:58;;;;;;;4.90;4.10;;;12.20;99.90;;;;;;4989274;28;20455;-60
2022/07/12 03:37:23;;;;;;;4.73;4.00;;;12.20;99.90;;;;;;4983546;28;20315;-59
2022/07/12 03:39:49;;;;;;;6.57;4.73;;;12.10;99.90;;;;;;4979469;28;20689;-60
2022/07/12 03:42:15;;;;;;;8.30;4.40;;;12.10;99.90;;;;;;4983343;28;20312;-60
2022/07/12 03:44:41;;;;;;;4.70;4.30;;;12.10;99.90;;;;;;4987798;28;20535;-60
2022/07/12 03:47:06;;;;;;;4.97;4.47;;;12.10;99.90;;;;;;4988298;28;20235;-59
2022/07/12 03:49:32;;;;;;;4.60;4.20;;;12.10;99.90;;;;;;4972236;28;20186;-60
2022/07/12 03:51:58;;;;;;;5.20;4.00;;;12.10;99.90;;;;;;4971052;28;20182;-60
2022/07/12 03:54:24;;;;;;;4.13;3.73;;;12.10;99.90;;;;;;4980848;28;20209;-57
2022/07/12 03:59:34;;;;;;;4.27;3.87;;;12.00;99.90;;;;;;4977884;28;20268;-60
2022/07/12 04:02:01;;;;;;;9.37;4.20;;;12.00;99.90;;;;;;4974624;28;20974;-59
2022/07/12 04:04:27;;;;;;;5.33;4.13;;;12.00;99.90;;;;;;4971529;28;20292;-61
2022/07/12 04:06:52;;;;;;;4.13;3.77;;;12.00;99.90;;;;;;4978445;28;20535;-60
2022/07/12 04:09:18;;;;;;;4.33;3.87;;;12.00;99.90;;;;;;4985301;28;20185;-59
2022/07/12 04:11:44;;;;;;;5.60;5.03;;;12.00;99.90;;;;;;4977549;28;20268;-60
2022/07/12 04:14:10;;;;;;;7.50;4.00;;;12.00;99.90;;;;;;4980975;28;20876;-62
2022/07/12 04:16:35;;;;;;;7.93;3.70;;;12.00;99.90;;;;;;4978131;28;20230;-60
2022/07/12 04:19:01;;;;;;;5.23;3.70;;;12.10;99.90;;;;;;4980488;28;20224;-60
2022/07/12 04:21:27;;;;;;;4.60;3.77;;;12.00;99.90;;;;;;4977528;28;20280;-61
2022/07/12 04:23:52;;;;;;;7.57;4.33;;;12.10;99.90;;;;;;4980826;28;21208;-62
2022/07/12 04:26:18;;;;;;;4.17;3.77;;;12.10;99.90;;;;;;4977316;28;20207;-61
2022/07/12 04:28:43;;;;;;;5.10;4.60;;;12.00;99.90;;;;;;4983154;28;20200;-62
2022/07/12 04:31:09;;;;;;;4.93;3.70;;;12.00;99.90;;;;;;4978417;28;20217;-61
2022/07/12 04:33:35;;;;;;;5.30;4.20;;;12.00;99.90;;;;;;4979756;28;20631;-62
2022/07/12 04:36:01;;;;;;;5.03;4.53;;;11.90;99.90;;;;;;4980149;28;20463;-61
2022/07/12 04:38:27;;;;;;;5.50;4.47;;;11.80;99.90;;;;;;4981077;28;20186;-63
2022/07/12 04:40:52;;;;;;;5.60;4.50;;;11.80;99.90;;;;;;4984568;28;20702;-60
2022/07/12 04:43:18;;;;;;;6.43;4.10;;;11.70;99.90;;;;;;4985527;28;20181;-61
2022/07/12 04:45:44;;;;;;;5.60;4.57;;;11.80;99.90;;;;;;4978932;28;20236;-61
2022/07/12 04:48:12;;;;;;;6.23;4.60;;;11.80;99.90;;;;;;4982943;28;20736;-61
2022/07/12 04:50:38;;;;;;;6.37;4.70;;;11.80;99.90;;;;;;4993970;28;20183;-61
2022/07/12 04:53:04;;;;;;;5.07;4.23;;;11.90;99.90;;;;;;4990081;28;20444;-61
2022/07/12 04:55:30;;;;;;;11.73;4.90;;;12.00;99.90;;;;;;4988887;28;20200;-62
2022/07/12 04:57:55;;;;;;;13.57;5.40;;;12.00;99.90;;;;;;4990908;28;20208;-61
2022/07/12 05:00:22;;;;;;;5.00;4.30;;;12.10;99.90;;;;;;4986691;28;20181;-61
2022/07/12 05:02:48;;;;;;;7.20;4.67;;;12.10;99.90;;;;;;4990707;28;20574;-62
2022/07/12 05:05:17;;;;;;;6.10;4.73;;;12.20;99.90;;;;;;4986724;28;20487;-61
2022/07/12 05:07:43;;;;;;;5.90;4.50;;;12.30;99.90;;;;;;4988629;28;20212;-61
2022/07/12 05:10:08;;;;;;;7.03;4.33;;;12.40;99.90;;;;;;4982664;28;20793;-61
2022/07/12 05:12:35;;;;;;;5.60;4.43;;;12.50;99.90;;;;;;4991719;28;20424;-61
2022/07/12 05:15:01;;;;;;;9.50;4.70;;;12.60;99.90;;;;;;4988384;28;20210;-62
2022/07/12 05:17:26;;;;;;;4.70;4.20;;;12.70;99.90;;;;;;4991470;28;20503;-61
2022/07/12 05:19:52;;;;;;;7.87;4.90;;;12.70;99.90;;;;;;4972288;28;20185;-62
2022/07/12 05:22:17;;;;;;;5.07;4.33;;;12.80;99.90;;;;;;4985238;28;20717;-61
2022/07/12 05:24:43;;;;;;;7.47;4.83;;;12.90;99.90;;;;;;4983524;28;20209;-62
2022/07/12 05:27:09;;;;;;;8.00;4.80;;;12.90;99.90;;;;;;4990674;28;20216;-62
2022/07/12 05:29:35;;;;;;;8.00;4.00;;;13.00;99.90;;;;;;4990591;28;20836;-62
2022/07/12 05:32:01;;;;;;;6.47;4.10;;;13.10;99.90;;;;;;4990468;28;20459;-62
2022/07/12 05:34:27;;;;;;;6.20;4.60;;;13.20;99.90;;;;;;4978369;28;20197;-61
2022/07/12 05:36:53;;;;;;;5.80;4.43;;;13.20;99.90;;;;;;4988432;28;20197;-62
2022/07/12 05:39:18;;;;;;;4.90;4.40;;;13.30;99.90;;;;;;4989309;28;20458;-62
2022/07/12 05:41:44;;;;;;;6.80;4.87;;;13.40;99.90;;;;;;4988605;28;20184;-61
2022/07/12 05:44:10;;;;;;;7.70;4.90;;;13.50;99.90;;;;;;4989387;28;20662;-62
2022/07/12 05:46:36;;;;;;;10.10;5.10;;;13.50;99.90;;;;;;4989987;28;20437;-62
2022/07/12 05:49:02;;;;;;;5.50;4.53;;;13.60;99.90;;;;;;4991306;28;20471;-63
2022/07/12 05:54:12;;;;;;;7.10;5.00;;;13.70;99.90;;;;;;4989196;28;20563;-62
2022/07/12 05:56:38;;;;;;;6.10;4.90;;;13.80;99.90;;;;;;4984991;28;20516;-63
2022/07/12 05:59:04;;;;;;;6.13;3.90;;;13.80;99.90;;;;;;4989405;28;20185;-62
2022/07/12 06:01:29;;;;;;;6.20;4.93;;;13.90;99.90;;;;;;4990266;28;20192;-61
2022/07/12 06:03:55;;;;;;;7.30;5.13;;;14.10;99.90;;;;;;4988371;28;20192;-62
2022/07/12 06:06:20;;;;;;;7.43;5.53;;;14.10;99.90;;;;;;4989849;28;20224;-62
2022/07/12 06:08:46;;;;;;;4.30;3.90;;;14.20;99.90;;;;;;4990714;28;20200;-61
2022/07/12 06:11:12;;;;;;;4.83;4.27;;;14.30;99.90;;;;;;4988918;28;20181;-61
2022/07/12 06:13:38;;;;;;;5.33;4.83;;;14.50;99.90;;;;;;4985012;28;20182;-61
2022/07/12 06:16:05;;;;;;;6.07;4.80;;;14.60;99.90;;;;;;4989220;28;20201;-61
2022/07/12 06:18:33;;;;;;;7.00;5.30;;;14.70;99.90;;;;;;4990244;28;20514;-62
2022/07/12 06:20:59;;;;;;;5.43;4.73;;;14.80;99.90;;;;;;4981990;28;20471;-63
2022/07/12 06:23:25;;;;;;;6.67;4.80;;;14.90;99.90;;;;;;4989844;28;20440;-62
2022/07/12 06:25:51;;;;;;;5.03;4.53;;;15.00;99.90;;;;;;4989517;28;20275;-62
2022/07/12 06:28:16;;;;;;;6.00;4.40;;;15.10;99.90;;;;;;4988536;28;20211;-62
2022/07/12 06:30:42;;;;;;;6.20;4.23;;;15.20;99.90;;;;;;4988872;28;20730;-62
2022/07/12 06:33:08;;;;;;;8.50;4.80;;;15.20;99.90;;;;;;4985736;28;20244;-64
2022/07/12 06:35:34;;;;;;;5.03;4.53;;;15.30;99.90;;;;;;4988779;28;20725;-61
2022/07/12 06:37:59;;;;;;;6.27;5.20;;;15.40;99.90;;;;;;4984201;28;20213;-62
2022/07/12 06:40:25;;;;;;;5.27;4.53;;;15.50;99.90;;;;;;4986633;28;20685;-62
2022/07/12 06:42:51;;;;;;;6.53;5.80;;;15.60;99.90;;;;;;4989876;28;20672;-62
2022/07/12 06:45:17;;;;;;;8.03;5.23;;;15.70;99.90;;;;;;4989072;28;20206;-62
2022/07/12 06:47:43;;;;;;;7.57;5.70;;;15.90;99.90;;;;;;4979082;28;20573;-62
2022/07/12 06:50:09;;;;;;;7.77;4.70;;;16.00;99.90;;;;;;4988177;28;20479;-62
2022/07/12 06:52:35;;;;;;;7.33;4.87;;;16.20;99.90;;;;;;4989099;28;20177;-62
2022/07/12 06:55:01;;;;;;;8.30;4.67;;;16.30;99.90;;;;;;4985283;28;20208;-62
2022/07/12 06:57:29;;;;;;;7.90;5.17;;;16.50;99.90;;;;;;4987288;28;20933;-63
2022/07/12 06:59:55;;;;;;;8.03;6.13;;;16.70;99.90;;;;;;4984432;28;20193;-62
2022/07/12 07:02:21;;;;;;;7.97;5.13;;;16.90;98.70;;;;;;4990171;28;20432;-62
2022/07/12 07:04:47;;;;;;;8.43;5.77;;;17.10;98.30;;;;;;4989359;28;20521;-62
2022/07/12 07:07:12;;;;;;;6.73;4.70;;;17.20;97.00;;;;;;4990560;28;20193;-62
2022/07/12 07:09:38;;;;;;;9.30;4.60;;;17.40;96.20;;;;;;4989176;28;20176;-62
2022/07/12 07:12:04;;;;;;;5.47;4.80;;;17.50;95.20;;;;;;4986936;28;20181;-62
2022/07/12 07:14:30;;;;;;;14.47;5.00;;;17.70;94.50;;;;;;4981384;28;20224;-62
2022/07/12 07:16:55;;;;;;;8.00;4.57;;;17.80;93.10;;;;;;4981545;28;20817;-62
2022/07/12 07:19:26;;;;;;;7.27;5.90;;;18.00;92.80;;;;;;4988645;28;20207;-62
2022/07/12 07:21:52;;;;;;;5.60;5.10;;;18.10;91.90;;;;;;4983923;28;20204;-64
2022/07/12 07:24:17;;;;;;;6.43;5.00;;;18.20;91.80;;;;;;4987823;28;20436;-63
2022/07/12 07:26:43;;;;;;;6.43;5.30;;;18.30;91.10;;;;;;4983457;28;20436;-62
2022/07/12 07:31:53;;;;;;;7.33;4.23;;;18.50;88.50;;;;;;4988908;28;20406;-62
2022/07/12 07:34:18;;;;;;;5.60;4.80;;;18.60;87.70;;;;;;4988675;28;20428;-62
2022/07/12 07:36:44;;;;;;;5.60;4.97;;;18.70;86.40;;;;;;4976477;28;20173;-62
2022/07/12 07:39:10;;;;;;;7.10;4.73;;;18.90;85.00;;;;;;4983606;28;20177;-62
2022/07/12 07:41:35;;;;;;;8.63;3.77;;;19.00;84.00;;;;;;4987052;28;20203;-62
2022/07/12 07:44:01;;;;;;;5.90;3.87;;;19.10;82.40;;;;;;4972733;28;20821;-62
2022/07/12 07:46:26;;;;;;;4.37;3.97;;;19.20;80.70;;;;;;4987678;28;20256;-62
2022/07/12 07:48:52;;;;;;;5.27;3.67;;;19.30;79.00;;;;;;4990548;28;20201;-62
2022/07/12 07:51:18;;;;;;;9.07;4.03;;;19.40;77.10;;;;;;4992394;28;20209;-62
2022/07/12 07:53:43;;;;;;;4.63;3.80;;;19.40;76.40;;;;;;4988595;28;20185;-62
2022/07/12 07:56:09;;;;;;;5.33;3.63;;;19.50;75.30;;;;;;4988390;28;20734;-63
2022/07/12 07:58:34;;;;;;;5.80;4.00;;;19.60;73.40;;;;;;4992798;28;20204;-62
2022/07/12 08:01:00;;;;;;;4.40;3.17;;;19.70;71.80;;;;;;4990863;28;20256;-62
2022/07/12 08:03:26;;;;;;;4.23;2.90;;;19.80;71.00;;;;;;4991164;28;20180;-62
2022/07/12 08:05:51;;;;;;;10.10;3.40;;;19.80;68.50;;;;;;4989788;28;20682;-63
2022/07/12 08:08:18;;;;;;;3.80;3.37;;;19.90;66.50;;;;;;4989187;28;20754;-61
2022/07/12 08:10:44;;;;;;;4.53;4.00;;;19.90;66.80;;;;;;4988292;28;20185;-62
2022/07/12 08:13:10;;;;;;;3.97;3.53;;;20.00;66.40;;;;;;4987767;28;20420;-63
2022/07/12 08:15:36;;;;;;;7.57;3.90;;;20.10;65.60;;;;;;4991143;28;20809;-62
2022/07/12 08:18:03;;;;;;;4.53;3.27;;;20.10;65.60;;;;;;4989449;28;20185;-62
2022/07/12 08:20:28;;;;;;;4.10;3.50;;;20.20;66.30;;;;;;4990917;28;20486;-63
2022/07/12 08:22:54;;;;;;;3.90;3.50;;;20.40;66.40;;;;;;4991277;28;20850;-63
2022/07/12 08:25:19;;;;;;;3.97;3.57;;;20.40;65.70;;;;;;5001503;28;20197;-62
2022/07/12 08:27:45;;;;;;;5.00;3.23;;;20.50;64.20;;;;;;4991455;28;20360;-62
2022/07/12 08:30:11;;;;;;;3.87;3.10;;;20.50;63.10;;;;;;4980708;28;20635;-64
2022/07/12 08:32:37;;;;;;;3.67;3.30;;;20.50;62.60;;;;;;4985457;28;20200;-63
2022/07/12 08:35:03;;;;;;;3.83;3.47;;;20.60;63.10;;;;;;4991518;28;20268;-62
2022/07/12 08:37:28;;;;;;;3.93;3.40;;;20.70;63.00;;;;;;4989973;28;20531;-62
2022/07/12 08:39:54;;;;;;;3.63;3.00;;;20.80;62.70;;;;;;4990307;28;20183;-62
2022/07/12 08:42:20;;;;;;;6.57;2.60;;;20.90;61.10;;;;;;4990984;28;20646;-62
2022/07/12 08:44:57;;;;;;;3.13;2.77;;;21.00;60.00;;;;;;4990653;28;20197;-62
2022/07/12 08:47:23;;;;;;;5.30;3.10;;;21.10;59.80;;;;;;4984835;28;20698;-63
2022/07/12 08:50:10;;;;;;;6.77;3.50;;;21.20;59.10;;;;;;4977935;28;20454;-62
2022/07/12 08:52:45;;;;;;;3.60;2.97;;;21.20;58.20;;;;;;4989171;28;20518;-62
2022/07/12 08:55:17;;;;;;;5.27;3.10;;;21.10;57.20;;;;;;4993987;28;20497;-64
2022/07/12 08:57:44;;;;;;;5.93;3.43;;;21.00;57.70;;;;;;4990643;28;20510;-62
2022/07/12 09:00:10;;;;;;;4.00;3.53;;;20.80;57.70;;;;;;4987712;28;20438;-62
2022/07/12 09:02:54;;;;;;;6.97;3.30;;;20.70;56.30;;;;;;4987386;28;20520;-63
2022/07/12 09:05:22;;;;;;;4.60;2.67;;;20.60;58.20;;;;;;4984471;28;20535;-62
2022/07/12 09:07:48;;;;;;;5.87;3.07;;;20.70;59.00;;;;;;4990599;28;20456;-62
2022/07/12 09:10:15;;;;;;;4.20;2.93;;;20.90;58.30;;;;;;4991127;28;20504;-63
2022/07/12 09:12:42;;;;;;;3.70;3.40;;;21.10;57.70;;;;;;4988894;28;20486;-62
2022/07/12 09:15:11;;;;;;;3.37;3.07;;;21.30;57.70;;;;;;4988583;28;21071;-62
2022/07/12 09:17:36;;;;;;;4.80;3.30;;;21.40;57.50;;;;;;4987947;28;20528;-63
2022/07/12 09:20:03;;;;;;;3.40;3.10;;;21.60;56.90;;;;;;4988225;28;20499;-63
2022/07/12 09:22:29;;;;;;;3.33;3.03;;;21.70;56.50;;;;;;4987705;28;20224;-64
2022/07/12 09:24:54;;;;;;;3.87;3.20;;;21.90;55.70;;;;;;4989297;28;20447;-63
2022/07/12 09:27:26;;;;;;;3.10;2.87;;;22.00;55.70;;;;;;4987766;28;20247;-62
2022/07/12 09:29:52;;;;;;;3.43;3.13;;;22.20;55.30;;;;;;4989102;28;20231;-64
2022/07/12 09:37:52;;;;;;;4.70;3.50;;;22.80;55.70;;;;;;4965593;28;20440;-60
2022/07/12 09:40:20;;;;;;;4.33;3.40;;;23.10;54.40;;;;;;4989583;28;20475;-62
2022/07/12 09:42:47;;;;;;;4.03;2.87;;;23.20;53.90;;;;;;4990254;28;20271;-62
2022/07/12 09:45:14;;;;;;;3.20;2.87;;;23.50;53.60;;;;;;4980704;28;20448;-60
2022/07/12 09:47:44;;;;;;;2.93;2.73;;;23.60;52.40;;;;;;4989797;28;20466;-62
2022/07/12 09:50:10;;;;;;;2.80;2.60;;;23.50;52.40;;;;;;4989752;28;20907;-62
2022/07/12 09:52:39;;;;;;;5.50;2.93;;;23.50;50.70;;;;;;4986889;28;20428;-61
2022/07/12 09:55:07;;;;;;;2.70;2.50;;;23.50;51.60;;;;;;4989068;28;20231;-61
2022/07/12 09:57:34;;;;;;;4.33;3.40;;;23.60;53.00;;;;;;4988374;28;20436;-61
2022/07/12 10:00:02;;;;;;;3.07;2.80;;;23.80;53.00;;;;;;4981624;28;20930;-61
2022/07/12 10:02:28;;;;;;;4.40;2.77;;;24.00;51.70;;;;;;4990438;28;20416;-61
2022/07/12 10:04:55;;;;;;;3.43;3.13;;;24.20;50.90;;;;;;4988782;28;20433;-60
2022/07/12 10:07:21;;;;;;;3.57;2.60;;;24.30;51.10;;;;;;4986825;28;20806;-63
2022/07/12 10:09:51;;;;;;;3.70;3.17;;;24.40;51.10;;;;;;4988655;28;20436;-62
2022/07/12 10:12:19;;;;;;;4.40;2.90;;;24.50;50.50;;;;;;4987761;28;21078;-63
2022/07/12 10:14:46;;;;;;;2.50;2.30;;;24.50;50.90;;;;;;4988671;28;20448;-63
2022/07/12 10:17:13;;;;;;;2.60;2.40;;;24.60;50.60;;;;;;4987714;28;20430;-62
2022/07/12 10:19:39;;;;;;;4.07;2.77;;;24.60;50.70;;;;;;4988958;28;20424;-61
2022/07/12 10:22:06;;;;;;;2.83;2.63;;;24.70;50.00;;;;;;4988152;28;20424;-62
2022/07/12 10:24:32;;;;;;;3.37;2.80;;;24.80;49.60;;;;;;4989306;28;20436;-62
2022/07/12 10:27:19;;;;;;;3.00;2.70;;;24.90;49.40;;;;;;4981576;28;20428;-62
2022/07/12 10:29:48;;;;;;;7.03;3.50;;;24.90;49.10;;;;;;4982397;28;20241;-62
2022/07/12 10:32:26;;;;;;;6.13;3.20;;;25.00;49.00;;;;;;4987659;28;20444;-62
2022/07/12 10:35:02;;;;;;;6.10;2.80;;;25.10;48.80;;;;;;4985840;28;20973;-61
2022/07/12 10:37:28;;;;;;;3.33;3.03;;;25.20;48.40;;;;;;4981140;28;20524;-63
2022/07/12 10:40:23;;;;;;;3.07;2.87;;;25.20;47.70;;;;;;4990426;28;20416;-63
2022/07/12 10:43:01;;;;;;;3.00;2.70;;;25.30;48.60;;;;;;4975197;28;20445;-62
2022/07/12 10:45:31;;;;;;;3.03;2.83;;;25.40;48.90;;;;;;4985865;28;20949;-61
2022/07/12 10:48:01;;;;;;;3.23;2.93;;;25.50;48.40;;;;;;4987840;28;20458;-62
2022/07/12 10:53:25;;;;;;;3.33;2.70;;;25.40;47.10;;;;;;4974157;28;20801;-62
2022/07/12 10:56:11;;;;;;;6.00;3.13;;;25.60;47.90;;;;;;4988407;28;20432;-62
2022/07/12 10:58:58;;;;;;;2.80;2.60;;;25.70;46.90;;;;;;4985235;28;20498;-63
2022/07/12 11:01:29;;;;;;;3.03;2.60;;;25.90;48.10;;;;;;4983595;28;20478;-62
2022/07/12 11:04:10;;;;;;;3.10;2.80;;;26.10;46.40;;;;;;4982933;28;20457;-62
2022/07/12 11:06:37;;;;;;;3.00;2.70;;;26.20;45.00;;;;;;4986924;28;20431;-62
2022/07/12 11:09:07;;;;;;;4.20;2.50;;;26.30;44.60;;;;;;4984995;28;20463;-62
2022/07/12 11:11:45;;;;;;;2.40;2.20;;;26.30;44.80;;;;;;4988642;28;20424;-64
2022/07/12 11:14:12;;;;;;;2.57;2.37;;;26.40;44.50;;;;;;4986101;28;20481;-62
2022/07/12 11:16:49;;;;;;;2.63;2.43;;;26.50;44.10;;;;;;4987265;28;20439;-63
2022/07/12 11:19:15;;;;;;;2.93;2.30;;;26.70;44.70;;;;;;4981172;28;20412;-62
2022/07/12 11:21:45;;;;;;;2.40;2.20;;;26.80;43.30;;;;;;4973109;28;20436;-62
2022/07/12 11:24:19;;;;;;;2.60;2.40;;;26.80;43.60;;;;;;4990770;28;20455;-62
2022/07/12 11:26:45;;;;;;;3.37;2.50;;;27.00;44.40;;;;;;4994002;28;20443;-62
2022/07/12 11:29:12;;;;;;;3.13;2.00;;;27.10;44.10;;;;;;4990224;28;20471;-62
2022/07/12 11:31:38;;;;;;;2.63;2.40;;;27.20;43.30;;;;;;4989442;28;20444;-62
2022/07/12 11:34:03;;;;;;;2.70;2.30;;;27.30;43.20;;;;;;4989831;28;20431;-62
2022/07/12 11:36:30;;;;;;;3.20;2.90;;;27.30;42.90;;;;;;4987241;28;20667;-62
2022/07/12 11:38:56;;;;;;;2.30;2.10;;;27.50;43.00;;;;;;4991773;28;20191;-62
2022/07/12 11:41:24;;;;;;;2.83;2.63;;;27.60;43.30;;;;;;4995370;28;20509;-62
2022/07/12 11:43:50;;;;;;;2.40;2.20;;;27.70;43.20;;;;;;4991833;28;20443;-62
2022/07/12 11:46:15;;;;;;;4.60;2.77;;;27.80;42.50;;;;;;4993796;28;20266;-62
2022/07/12 11:48:42;;;;;;;3.00;2.40;;;27.90;42.40;;;;;;4990361;28;20213;-63
2022/07/12 11:51:12;;;;;;;3.47;2.67;;;28.00;42.40;;;;;;4991841;28;20235;-60
2022/07/12 11:53:40;;;;;;;2.83;2.63;;;28.10;43.30;;;;;;4984209;28;20172;-60
2022/07/12 11:56:07;;;;;;;4.97;2.70;;;28.30;43.20;;;;;;4986793;28;20196;-61
2022/07/12 11:58:34;;;;;;;3.60;2.80;;;28.30;43.40;;;;;;4982132;28;20678;-60
2022/07/12 12:01:00;;;;;;;3.70;2.60;;;28.30;43.50;;;;;;4988517;28;20172;-59
2022/07/12 12:03:26;;;;;;;7.20;2.70;;;28.40;43.50;;;;;;4994686;28;20267;-60
2022/07/12 12:05:55;;;;;;;4.37;2.40;;;28.50;43.80;;;;;;4993309;28;20744;-60
2022/07/12 12:08:22;;;;;;;4.23;2.50;;;28.50;42.90;;;;;;4987398;28;20696;-60
2022/07/12 12:10:57;;;;;;;2.53;2.10;;;28.50;43.30;;;;;;4991143;28;20172;-60
2022/07/12 12:13:28;;;;;;;3.00;2.43;;;28.50;42.40;;;;;;4986062;28;20168;-60
2022/07/12 12:15:59;;;;;;;2.60;2.40;;;28.50;40.40;;;;;;4987397;28;20196;-61
2022/07/12 12:18:43;;;;;;;4.40;2.17;;;28.50;41.10;;;;;;4991863;28;20204;-60
2022/07/12 12:21:11;;;;;;;2.63;2.43;;;28.40;40.10;;;;;;4990576;28;20175;-60
2022/07/12 12:23:39;;;;;;;3.93;2.70;;;28.40;40.30;;;;;;4991782;28;20176;-60
2022/07/12 12:26:21;;;;;;;5.90;2.50;;;28.40;40.90;;;;;;4991657;28;20206;-60
2022/07/12 12:28:54;;;;;;;4.40;2.90;;;28.40;41.20;;;;;;4984443;28;20282;-59
2022/07/12 12:31:21;;;;;;;3.83;2.60;;;28.30;39.40;;;;;;4988363;28;20180;-60
2022/07/12 12:33:52;;;;;;;2.63;2.43;;;28.30;41.00;;;;;;4987759;28;20271;-60
2022/07/12 12:36:24;;;;;;;3.00;2.67;;;28.50;41.80;;;;;;4985932;28;20276;-60
2022/07/12 12:38:54;;;;;;;5.40;2.80;;;28.60;41.00;;;;;;4984337;28;20208;-59
2022/07/12 12:41:22;;;;;;;3.03;2.73;;;28.60;37.70;;;;;;4981819;28;20186;-61
2022/07/12 12:43:55;;;;;;;3.20;2.63;;;28.60;37.40;;;;;;4980404;28;20208;-61
2022/07/12 12:46:21;;;;;;;3.97;2.47;;;28.60;37.40;;;;;;4987922;28;20227;-61
2022/07/12 12:48:48;;;;;;;4.03;3.20;;;28.60;38.00;;;;;;4989409;28;20205;-60
2022/07/12 12:51:14;;;;;;;2.87;2.30;;;28.80;38.60;;;;;;4985379;28;20192;-61
2022/07/12 12:53:42;;;;;;;3.08;2.20;;;29.00;38.80;;;;;;4990465;28;20199;-60
2022/07/12 12:56:14;;;;;;;2.60;2.40;;;29.10;38.50;;;;;;4988251;28;20717;-61
2022/07/12 12:58:41;;;;;;;3.60;2.50;;;28.80;38.30;;;;;;4984499;28;20545;-61
2022/07/12 13:01:08;;;;;;;2.90;2.60;;;28.60;38.60;;;;;;4985340;28;20732;-60
2022/07/12 13:03:34;;;;;;;2.72;2.53;;;28.50;38.80;;;;;;4987063;28;20180;-61